Time;durP1;ratioP1;P1;durP2;ratioP2;P2;SDS_P1;SDS_P2;PMS_P1;PMS_P2;Temp;Humidity;BMP_temperature;BMP_pressure;BME280_temperature;BME280_humidity;BME280_pressure;Samples;Min_cycle;Max_cycle;Signal;HPM_P1;HPM_P2
2021/04/24 00:01:12;;;;;;;0.43;0.43;;;9.10;99.90;;;;;;4994609;28;20178;-75
2021/04/24 00:03:38;;;;;;;1.42;0.90;;;9.30;99.90;;;;;;4994510;28;20204;-75
2021/04/24 00:06:03;;;;;;;0.75;0.75;;;9.20;99.90;;;;;;4994317;28;20216;-76
2021/04/24 00:08:29;;;;;;;0.77;0.45;;;9.10;99.90;;;;;;4994516;28;20240;-75
2021/04/24 00:10:55;;;;;;;4.75;0.68;;;9.00;99.90;;;;;;4994391;28;20708;-76
2021/04/24 00:13:21;;;;;;;0.50;0.50;;;9.00;99.90;;;;;;4994438;28;20228;-75
2021/04/24 00:15:47;;;;;;;0.80;0.80;;;9.00;99.90;;;;;;4994305;28;20157;-75
2021/04/24 00:18:13;;;;;;;3.00;1.45;;;9.00;99.90;;;;;;4994376;28;20169;-76
2021/04/24 00:20:39;;;;;;;0.90;0.88;;;9.00;99.90;;;;;;4994299;28;20566;-75
2021/04/24 00:23:06;;;;;;;1.00;0.93;;;9.00;99.90;;;;;;4994156;28;20176;-75
2021/04/24 00:25:31;;;;;;;0.77;0.77;;;9.00;99.90;;;;;;4994187;28;20200;-75
2021/04/24 00:27:57;;;;;;;0.60;0.60;;;9.00;99.90;;;;;;4993100;28;20548;-76
2021/04/24 00:30:23;;;;;;;1.10;1.10;;;8.90;99.90;;;;;;4994393;28;20173;-75
2021/04/24 00:32:50;;;;;;;0.52;0.52;;;8.80;99.90;;;;;;4994078;28;20157;-76
2021/04/24 00:35:17;;;;;;;0.60;0.60;;;8.70;99.90;;;;;;4994093;28;20165;-76
2021/04/24 00:37:44;;;;;;;0.55;0.55;;;8.70;99.90;;;;;;4993957;28;20181;-75
2021/04/24 00:40:10;;;;;;;0.30;0.30;;;8.70;99.90;;;;;;4993732;28;20271;-75
2021/04/24 00:42:37;;;;;;;4.07;1.73;;;8.70;99.90;;;;;;4994227;28;20162;-75
2021/04/24 00:45:06;;;;;;;5.28;1.70;;;8.60;99.90;;;;;;4993896;28;20538;-75
2021/04/24 00:47:31;;;;;;;0.68;0.47;;;8.60;99.90;;;;;;4993715;28;20207;-75
2021/04/24 00:49:57;;;;;;;2.50;0.75;;;8.50;99.90;;;;;;4993860;28;20169;-75
2021/04/24 00:52:23;;;;;;;1.13;1.13;;;8.50;99.90;;;;;;4993868;28;20223;-75
2021/04/24 00:54:48;;;;;;;1.63;0.50;;;8.60;99.90;;;;;;4993755;28;20169;-74
2021/04/24 00:57:15;;;;;;;0.70;0.70;;;8.60;99.90;;;;;;4993698;28;20206;-74
2021/04/24 00:59:41;;;;;;;1.55;1.02;;;8.50;99.90;;;;;;4993688;28;20165;-74
2021/04/24 01:02:09;;;;;;;3.72;1.27;;;8.40;99.90;;;;;;4993724;28;20245;-74
2021/04/24 01:04:36;;;;;;;2.53;2.33;;;8.40;99.90;;;;;;4992605;28;20228;-74
2021/04/24 01:07:04;;;;;;;10.10;1.98;;;8.40;99.90;;;;;;4993508;28;20679;-75
2021/04/24 01:09:30;;;;;;;0.50;0.50;;;8.60;99.90;;;;;;4993584;28;20191;-75
2021/04/24 01:11:56;;;;;;;0.22;0.22;;;8.50;99.90;;;;;;4993642;28;20244;-74
2021/04/24 01:14:21;;;;;;;0.50;0.50;;;8.60;99.90;;;;;;4992333;28;20260;-75
2021/04/24 01:16:47;;;;;;;0.80;0.80;;;8.70;99.90;;;;;;4993477;28;20593;-75
2021/04/24 01:19:15;;;;;;;1.45;1.35;;;8.70;99.90;;;;;;4993437;28;20185;-75
2021/04/24 01:21:41;;;;;;;2.42;1.20;;;8.50;99.90;;;;;;4993374;28;20179;-75
2021/04/24 01:24:09;;;;;;;2.55;0.60;;;8.60;99.90;;;;;;5008643;28;20724;-74
2021/04/24 01:26:35;;;;;;;3.58;2.63;;;8.70;99.90;;;;;;4993461;28;20215;-74
2021/04/24 01:29:03;;;;;;;2.58;1.13;;;8.70;99.90;;;;;;4993522;28;20161;-74
2021/04/24 01:31:32;;;;;;;1.40;1.35;;;8.50;99.90;;;;;;4993466;28;20223;-73
2021/04/24 01:33:58;;;;;;;0.82;0.82;;;8.40;99.90;;;;;;4992271;28;20274;-73
2021/04/24 01:36:24;;;;;;;1.02;0.88;;;8.30;99.90;;;;;;4993293;28;20181;-74
2021/04/24 01:38:49;;;;;;;0.98;0.93;;;8.30;99.90;;;;;;4993479;28;20317;-73
2021/04/24 01:41:15;;;;;;;1.30;1.17;;;8.30;99.90;;;;;;4993533;28;20180;-76
2021/04/24 01:43:40;;;;;;;0.50;0.50;;;8.30;99.90;;;;;;4993252;28;20173;-74
2021/04/24 01:46:06;;;;;;;1.27;1.27;;;8.30;99.90;;;;;;4993258;28;20189;-76
2021/04/24 01:48:31;;;;;;;1.15;1.15;;;8.20;99.90;;;;;;4993280;28;20255;-73
2021/04/24 01:50:57;;;;;;;0.40;0.40;;;8.20;99.90;;;;;;4993245;28;20220;-73
2021/04/24 01:53:24;;;;;;;0.80;0.80;;;8.20;99.90;;;;;;4993272;28;20235;-73
2021/04/24 01:55:51;;;;;;;0.60;0.60;;;8.00;99.90;;;;;;4993212;28;20158;-74
2021/04/24 01:58:20;;;;;;;0.90;0.55;;;8.00;99.90;;;;;;5008426;28;20176;-73
2021/04/24 02:00:53;;;;;;;0.80;0.70;;;8.10;99.90;;;;;;4993231;28;20683;-73
2021/04/24 02:03:18;;;;;;;1.50;1.40;;;7.90;99.90;;;;;;4993228;28;20180;-77
2021/04/24 02:05:46;;;;;;;1.83;1.75;;;7.80;99.90;;;;;;4993061;28;20279;-73
2021/04/24 02:08:15;;;;;;;1.55;1.42;;;7.80;99.90;;;;;;4991972;28;20184;-74
2021/04/24 02:10:45;;;;;;;1.77;1.67;;;7.80;99.90;;;;;;4993341;28;20170;-73
2021/04/24 02:13:13;;;;;;;4.22;1.25;;;7.80;99.90;;;;;;5008346;28;20187;-73
2021/04/24 02:15:39;;;;;;;0.98;0.50;;;7.90;99.90;;;;;;4994597;28;20163;-74
2021/04/24 02:18:06;;;;;;;0.85;0.85;;;7.90;99.90;;;;;;4996588;28;20173;-77
2021/04/24 02:20:33;;;;;;;0.55;0.55;;;7.70;99.90;;;;;;4996720;28;20165;-74
2021/04/24 02:22:59;;;;;;;1.73;1.27;;;7.60;99.90;;;;;;4996487;28;20173;-73
2021/04/24 02:25:25;;;;;;;0.95;0.95;;;7.80;99.90;;;;;;4996321;28;20228;-73
2021/04/24 02:27:50;;;;;;;1.27;1.17;;;7.80;99.90;;;;;;4996251;28;20185;-73
2021/04/24 02:30:19;;;;;;;2.40;1.63;;;7.60;99.90;;;;;;4996309;28;20699;-73
2021/04/24 02:32:45;;;;;;;2.00;0.90;;;7.60;99.90;;;;;;4996297;28;20161;-73
2021/04/24 02:35:14;;;;;;;0.35;0.35;;;7.70;99.90;;;;;;4996371;28;20173;-73
2021/04/24 02:37:40;;;;;;;0.40;0.40;;;7.70;99.90;;;;;;5002407;28;20276;-73
2021/04/24 02:40:12;;;;;;;1.17;1.08;;;7.70;99.90;;;;;;5013743;28;20244;-74
2021/04/24 02:42:38;;;;;;;1.17;1.13;;;7.80;99.90;;;;;;5014613;28;20165;-76
2021/04/24 02:45:07;;;;;;;2.78;1.55;;;7.70;99.90;;;;;;5014037;28;20197;-74
2021/04/24 02:47:33;;;;;;;0.88;0.75;;;7.70;99.90;;;;;;5026699;28;20194;-73
2021/04/24 02:50:00;;;;;;;10.63;1.30;;;7.80;99.90;;;;;;5010223;28;20181;-74
2021/04/24 02:52:26;;;;;;;0.28;0.28;;;7.70;99.90;;;;;;5024334;28;20265;-74
2021/04/24 02:54:53;;;;;;;0.52;0.52;;;7.50;99.90;;;;;;5007990;28;20196;-73
2021/04/24 02:57:19;;;;;;;4.50;3.00;;;7.60;99.90;;;;;;5014591;28;20288;-76
2021/04/24 02:59:44;;;;;;;0.82;0.73;;;7.70;99.90;;;;;;4997220;28;20253;-73
2021/04/24 03:02:10;;;;;;;0.90;0.90;;;7.70;99.90;;;;;;4996130;28;20157;-73
2021/04/24 03:04:36;;;;;;;2.00;1.85;;;7.70;99.90;;;;;;4995785;28;20212;-73
2021/04/24 03:07:01;;;;;;;1.83;0.70;;;7.70;99.90;;;;;;4995584;28;20285;-72
2021/04/24 03:09:27;;;;;;;0.82;0.82;;;7.70;99.90;;;;;;4995847;28;20169;-74
2021/04/24 03:11:52;;;;;;;0.85;0.73;;;7.70;99.90;;;;;;4995531;28;20161;-74
2021/04/24 03:14:18;;;;;;;0.90;0.90;;;7.70;99.90;;;;;;4995577;28;20510;-73
2021/04/24 03:16:43;;;;;;;6.88;2.40;;;7.50;99.90;;;;;;5010359;28;20221;-73
2021/04/24 03:19:11;;;;;;;0.80;0.60;;;7.70;99.90;;;;;;4995443;28;20177;-74
2021/04/24 03:21:37;;;;;;;0.40;0.40;;;7.60;99.90;;;;;;4995387;28;20176;-73
2021/04/24 03:24:04;;;;;;;0.50;0.50;;;7.50;99.90;;;;;;4995128;28;20200;-74
2021/04/24 03:26:31;;;;;;;0.55;0.55;;;7.50;99.90;;;;;;4994401;28;20177;-73
2021/04/24 03:28:57;;;;;;;5.68;2.47;;;7.30;99.90;;;;;;4995044;28;20237;-73
2021/04/24 03:31:22;;;;;;;1.38;1.33;;;7.30;99.90;;;;;;4995130;28;20247;-73
2021/04/24 03:33:48;;;;;;;6.85;1.27;;;7.30;99.90;;;;;;4995092;28;20292;-73
2021/04/24 03:36:14;;;;;;;0.40;0.40;;;7.30;99.90;;;;;;4994888;28;20193;-74
2021/04/24 03:38:40;;;;;;;0.88;0.88;;;7.30;99.90;;;;;;4993841;28;20168;-77
2021/04/24 03:41:07;;;;;;;0.80;0.80;;;7.30;99.90;;;;;;4994808;28;20223;-73
2021/04/24 03:43:34;;;;;;;1.63;1.20;;;7.20;99.90;;;;;;5009900;28;20591;-73
2021/04/24 03:45:59;;;;;;;1.50;1.10;;;7.10;99.90;;;;;;4994851;28;20287;-74
2021/04/24 03:48:25;;;;;;;0.45;0.45;;;7.20;99.90;;;;;;4994756;28;20616;-74
2021/04/24 03:50:52;;;;;;;1.13;1.13;;;7.20;99.90;;;;;;4994708;28;20165;-74
2021/04/24 03:53:18;;;;;;;0.82;0.82;;;7.10;99.90;;;;;;4994690;28;20174;-74
2021/04/24 03:55:44;;;;;;;1.10;1.10;;;7.00;99.90;;;;;;5009520;28;20529;-75
2021/04/24 03:58:10;;;;;;;4.13;0.80;;;7.10;99.90;;;;;;4994667;28;20177;-76
2021/04/24 04:00:35;;;;;;;0.30;0.30;;;7.10;99.90;;;;;;4994480;28;20188;-76
2021/04/24 04:03:03;;;;;;;0.32;0.32;;;7.10;99.90;;;;;;4994530;28;20228;-75
2021/04/24 04:05:34;;;;;;;1.38;1.27;;;7.10;99.90;;;;;;4994493;28;20196;-75
2021/04/24 04:08:01;;;;;;;0.85;0.85;;;7.30;99.90;;;;;;4994368;28;20181;-75
2021/04/24 04:10:27;;;;;;;2.67;0.85;;;7.20;99.90;;;;;;4994554;28;20203;-75
2021/04/24 04:12:54;;;;;;;0.30;0.30;;;7.20;99.90;;;;;;4994315;28;20162;-75
2021/04/24 04:15:22;;;;;;;2.55;1.30;;;7.20;99.90;;;;;;4994405;28;20220;-76
2021/04/24 04:17:59;;;;;;;0.75;0.75;;;7.20;99.90;;;;;;4994292;28;20193;-75
2021/04/24 04:20:24;;;;;;;1.30;1.30;;;7.30;99.90;;;;;;4994277;28;20538;-75
2021/04/24 04:22:50;;;;;;;1.25;1.15;;;7.20;99.90;;;;;;4994051;28;20169;-76
2021/04/24 04:25:16;;;;;;;0.57;0.57;;;7.20;99.90;;;;;;4994072;28;20224;-75
2021/04/24 04:27:42;;;;;;;0.55;0.55;;;7.00;99.90;;;;;;4994090;28;20217;-75
2021/04/24 04:30:10;;;;;;;1.52;1.20;;;6.90;99.90;;;;;;4994502;28;20525;-76
2021/04/24 04:32:36;;;;;;;0.30;0.30;;;6.90;99.90;;;;;;4994019;28;20259;-75
2021/04/24 04:35:04;;;;;;;0.50;0.50;;;6.80;99.90;;;;;;4993906;28;20656;-75
2021/04/24 04:37:30;;;;;;;1.73;1.63;;;6.70;99.90;;;;;;4993696;28;20196;-75
2021/04/24 04:39:55;;;;;;;1.15;1.13;;;6.70;99.90;;;;;;4993537;28;20220;-75
2021/04/24 04:42:21;;;;;;;0.70;0.70;;;6.60;99.90;;;;;;4993981;28;20173;-75
2021/04/24 04:44:46;;;;;;;0.82;0.82;;;6.70;99.90;;;;;;4993897;28;20560;-75
2021/04/24 04:47:13;;;;;;;7.97;1.95;;;6.60;99.90;;;;;;4993848;28;20653;-75
2021/04/24 04:49:38;;;;;;;1.25;1.17;;;6.70;99.90;;;;;;5008885;28;20204;-75
2021/04/24 04:52:04;;;;;;;0.65;0.65;;;6.80;99.90;;;;;;4993872;28;20189;-75
2021/04/24 04:54:29;;;;;;;5.38;0.98;;;6.80;99.90;;;;;;5008809;28;20181;-75
2021/04/24 04:56:55;;;;;;;5.88;1.25;;;6.70;99.90;;;;;;4993906;28;20216;-75
2021/04/24 04:59:21;;;;;;;0.90;0.90;;;6.80;99.90;;;;;;4993742;28;20614;-75
2021/04/24 05:01:46;;;;;;;0.63;0.63;;;6.90;99.90;;;;;;5008764;28;20231;-75
2021/04/24 05:04:12;;;;;;;0.90;0.85;;;7.00;99.90;;;;;;4993529;28;20204;-75
2021/04/24 05:06:37;;;;;;;3.40;1.40;;;7.20;99.90;;;;;;4993590;28;20621;-75
2021/04/24 05:09:03;;;;;;;0.57;0.57;;;7.10;99.90;;;;;;4993701;28;20169;-75
2021/04/24 05:11:29;;;;;;;0.68;0.68;;;7.00;99.90;;;;;;4993602;28;20176;-74
2021/04/24 05:13:54;;;;;;;2.28;1.05;;;6.90;99.90;;;;;;4993506;28;20161;-76
2021/04/24 05:16:20;;;;;;;0.90;0.82;;;7.00;99.90;;;;;;4993505;28;20197;-75
2021/04/24 05:18:46;;;;;;;0.85;0.85;;;7.00;99.90;;;;;;4993567;28;20157;-75
2021/04/24 05:21:12;;;;;;;0.80;0.75;;;7.10;99.90;;;;;;4993391;28;20422;-76
2021/04/24 05:23:37;;;;;;;8.15;1.17;;;7.00;99.90;;;;;;4993607;28;20638;-75
2021/04/24 05:26:03;;;;;;;0.52;0.52;;;6.90;99.90;;;;;;4993200;28;20213;-75
2021/04/24 05:28:29;;;;;;;0.47;0.47;;;7.00;99.90;;;;;;5008606;28;20165;-75
2021/04/24 05:30:54;;;;;;;0.73;0.73;;;7.20;99.90;;;;;;4993400;28;20564;-75
2021/04/24 05:33:20;;;;;;;1.05;1.05;;;7.30;99.90;;;;;;4993397;28;20180;-75
2021/04/24 05:35:45;;;;;;;0.60;0.60;;;7.30;99.90;;;;;;4993274;28;20165;-75
2021/04/24 05:38:11;;;;;;;3.53;1.50;;;7.30;99.90;;;;;;4991787;28;20180;-75
2021/04/24 05:40:37;;;;;;;1.20;0.40;;;7.50;99.90;;;;;;4991886;28;20216;-75
2021/04/24 05:43:02;;;;;;;0.50;0.50;;;7.40;99.90;;;;;;5008285;28;20185;-75
2021/04/24 05:45:28;;;;;;;5.40;1.95;;;7.30;99.90;;;;;;4993192;28;20599;-75
2021/04/24 05:47:53;;;;;;;1.73;1.63;;;7.50;99.90;;;;;;4993118;28;20196;-75
2021/04/24 05:50:23;;;;;;;0.95;0.95;;;7.60;99.90;;;;;;4994183;28;20165;-75
2021/04/24 05:52:48;;;;;;;0.82;0.82;;;7.50;99.90;;;;;;4996940;28;20157;-75
2021/04/24 05:55:15;;;;;;;1.33;1.23;;;7.30;99.90;;;;;;4997032;28;20169;-75
2021/04/24 05:57:42;;;;;;;0.80;0.80;;;7.30;99.90;;;;;;4996524;28;20197;-77
2021/04/24 06:00:16;;;;;;;1.52;1.35;;;7.20;99.90;;;;;;4996858;28;20172;-75
2021/04/24 06:02:42;;;;;;;0.60;0.60;;;7.30;99.90;;;;;;5012023;28;20160;-75
2021/04/24 06:05:09;;;;;;;1.38;1.35;;;7.40;99.90;;;;;;4996777;28;20193;-76
2021/04/24 06:07:37;;;;;;;0.88;0.88;;;7.40;99.90;;;;;;4996653;28;20683;-76
2021/04/24 06:10:04;;;;;;;6.05;1.00;;;7.50;99.90;;;;;;4996882;28;20169;-76
2021/04/24 06:12:30;;;;;;;0.50;0.50;;;7.60;99.90;;;;;;4996740;28;20184;-76
2021/04/24 06:14:55;;;;;;;67.90;4.07;;;7.50;99.90;;;;;;4996543;28;20191;-76
2021/04/24 06:17:21;;;;;;;0.63;0.63;;;7.50;99.90;;;;;;4996532;28;20193;-76
2021/04/24 06:19:47;;;;;;;1.20;0.80;;;7.80;99.90;;;;;;4996318;28;20517;-76
2021/04/24 06:22:12;;;;;;;0.65;0.65;;;7.70;99.90;;;;;;4996219;28;20165;-76
2021/04/24 06:24:38;;;;;;;0.65;0.65;;;7.90;99.90;;;;;;4996330;28;20205;-76
2021/04/24 06:27:04;;;;;;;1.17;1.08;;;8.10;99.90;;;;;;4996249;28;20227;-76
2021/04/24 06:29:30;;;;;;;0.85;0.85;;;8.20;99.90;;;;;;4996359;28;20617;-76
2021/04/24 06:31:55;;;;;;;0.73;0.73;;;8.00;99.90;;;;;;4996142;28;20164;-75
2021/04/24 06:34:21;;;;;;;0.75;0.75;;;7.90;99.90;;;;;;4996121;28;20175;-76
2021/04/24 06:36:46;;;;;;;0.98;0.82;;;7.80;99.90;;;;;;4996047;28;20697;-75
2021/04/24 06:39:12;;;;;;;0.88;0.73;;;8.00;99.90;;;;;;4994499;28;20209;-75
2021/04/24 06:41:37;;;;;;;2.50;0.52;;;8.10;99.90;;;;;;4996037;28;20539;-76
2021/04/24 06:44:03;;;;;;;3.38;1.55;;;8.40;99.90;;;;;;4995972;28;20220;-76
2021/04/24 06:51:44;;;;;;;0.80;0.80;;;8.10;99.90;;;;;;4987098;28;20234;-76
2021/04/24 06:54:10;;;;;;;1.65;1.55;;;8.10;99.90;;;;;;4956918;28;20179;-74
2021/04/24 06:56:36;;;;;;;1.73;1.27;;;8.10;99.90;;;;;;4945928;28;20167;-80
2021/04/24 06:59:02;;;;;;;1.27;0.88;;;8.20;99.90;;;;;;4944682;28;20638;-75
2021/04/24 07:01:28;;;;;;;0.80;0.80;;;8.50;99.90;;;;;;4945669;28;20177;-75
2021/04/24 07:03:54;;;;;;;0.70;0.70;;;8.60;99.90;;;;;;4960208;28;20592;-75
2021/04/24 07:06:19;;;;;;;2.35;1.08;;;8.90;99.90;;;;;;4939406;28;20179;-75
2021/04/24 07:08:45;;;;;;;2.42;1.27;;;9.00;99.90;;;;;;4945706;28;20203;-77
2021/04/24 07:11:10;;;;;;;0.35;0.35;;;9.20;99.90;;;;;;4948426;28;20186;-77
2021/04/24 07:13:37;;;;;;;0.63;0.60;;;9.20;99.90;;;;;;4942625;28;20532;-76
2021/04/24 07:16:05;;;;;;;0.63;0.63;;;9.10;99.90;;;;;;4942258;28;20226;-76
2021/04/24 07:18:31;;;;;;;1.10;0.75;;;9.20;99.90;;;;;;4943893;28;20202;-75
2021/04/24 07:20:57;;;;;;;3.03;1.83;;;9.10;99.90;;;;;;4943871;29;20185;-76
2021/04/24 07:23:23;;;;;;;6.88;2.05;;;9.30;99.90;;;;;;4944151;28;20596;-75
2021/04/24 07:25:49;;;;;;;0.57;0.57;;;9.50;99.90;;;;;;4943373;28;20224;-76
2021/04/24 07:28:16;;;;;;;11.38;0.95;;;9.70;99.90;;;;;;4943852;28;20186;-78
2021/04/24 07:30:42;;;;;;;0.82;0.80;;;9.90;99.90;;;;;;4944052;29;20222;-79
2021/04/24 07:33:07;;;;;;;1.33;1.25;;;9.90;99.90;;;;;;4959264;28;20171;-79
2021/04/24 07:35:33;;;;;;;2.42;1.52;;;9.70;99.90;;;;;;4944774;28;20174;-76
2021/04/24 07:37:59;;;;;;;0.68;0.50;;;9.80;99.90;;;;;;4944860;28;20285;-76
2021/04/24 07:40:24;;;;;;;0.85;0.85;;;10.00;99.90;;;;;;4944494;29;20257;-75
2021/04/24 07:42:50;;;;;;;1.25;1.15;;;10.10;99.90;;;;;;4945150;29;20202;-74
2021/04/24 07:45:15;;;;;;;0.30;0.30;;;10.20;99.90;;;;;;4943412;29;20198;-76
2021/04/24 07:47:44;;;;;;;2.20;0.77;;;10.30;99.90;;;;;;4944295;28;20190;-76
2021/04/24 07:50:12;;;;;;;1.65;1.55;;;10.40;99.90;;;;;;4944261;29;20669;-77
2021/04/24 07:52:37;;;;;;;4.18;1.88;;;10.40;99.90;;;;;;4944117;28;20222;-77
2021/04/24 07:55:04;;;;;;;0.63;0.63;;;10.30;99.90;;;;;;4943751;29;20181;-77
2021/04/24 07:57:30;;;;;;;3.53;1.27;;;10.20;99.90;;;;;;4944235;28;20277;-77
2021/04/24 07:59:56;;;;;;;0.80;0.80;;;10.10;99.90;;;;;;4944336;29;20166;-80
2021/04/24 08:02:23;;;;;;;0.30;0.30;;;10.00;99.90;;;;;;4943541;28;20715;-77
2021/04/24 08:04:49;;;;;;;1.40;0.70;;;10.30;99.90;;;;;;4943964;28;20234;-77
2021/04/24 08:07:15;;;;;;;0.57;0.45;;;10.50;99.90;;;;;;4944186;28;20221;-77
2021/04/24 08:09:40;;;;;;;0.30;0.30;;;10.80;99.90;;;;;;4943952;28;20166;-77
2021/04/24 08:12:07;;;;;;;0.80;0.80;;;11.00;99.90;;;;;;4943602;28;20198;-77
2021/04/24 08:14:33;;;;;;;0.82;0.82;;;11.20;99.90;;;;;;4951929;28;20232;-79
2021/04/24 08:16:59;;;;;;;0.52;0.52;;;11.40;99.90;;;;;;4962944;28;20197;-78
2021/04/24 08:19:25;;;;;;;1.58;0.85;;;11.40;99.90;;;;;;4962928;28;20180;-84
2021/04/24 08:21:53;;;;;;;18.50;0.85;;;11.20;99.90;;;;;;4962717;28;20215;-76
2021/04/24 08:24:19;;;;;;;0.63;0.63;;;11.10;99.90;;;;;;4963322;28;20699;-76
2021/04/24 08:26:45;;;;;;;2.75;1.00;;;11.30;99.90;;;;;;4962514;28;20174;-77
2021/04/24 08:29:10;;;;;;;1.10;1.00;;;11.40;99.90;;;;;;4961699;28;20182;-77
2021/04/24 08:31:36;;;;;;;0.60;0.60;;;11.30;99.90;;;;;;4961278;28;20173;-76
2021/04/24 08:34:03;;;;;;;3.92;2.28;;;11.20;99.90;;;;;;4963795;28;20260;-77
2021/04/24 08:36:28;;;;;;;3.03;0.50;;;11.30;99.90;;;;;;4962253;28;20178;-77
2021/04/24 08:38:54;;;;;;;0.38;0.38;;;11.50;99.90;;;;;;4962897;28;20177;-77
2021/04/24 08:41:20;;;;;;;1.15;1.10;;;11.80;99.90;;;;;;4963576;28;20161;-77
2021/04/24 08:43:46;;;;;;;0.55;0.55;;;12.00;99.90;;;;;;4962971;28;20181;-78
2021/04/24 08:46:15;;;;;;;1.75;0.85;;;11.90;99.90;;;;;;4961979;28;20209;-76
2021/04/24 08:48:41;;;;;;;4.38;1.27;;;11.90;99.90;;;;;;4962677;28;20229;-77
2021/04/24 08:51:07;;;;;;;1.42;1.33;;;12.10;99.90;;;;;;4963749;28;20344;-77
2021/04/24 08:53:32;;;;;;;3.25;0.82;;;12.20;99.90;;;;;;4962948;28;20221;-77
2021/04/24 08:55:58;;;;;;;0.43;0.38;;;12.20;99.90;;;;;;4963065;28;20244;-78
2021/04/24 08:58:24;;;;;;;0.50;0.50;;;12.20;99.90;;;;;;4961565;28;20204;-78
2021/04/24 09:00:52;;;;;;;0.80;0.80;;;12.30;99.90;;;;;;4963357;28;20241;-78
2021/04/24 09:03:21;;;;;;;0.82;0.82;;;12.30;99.90;;;;;;4962614;28;20180;-79
2021/04/24 09:05:48;;;;;;;2.80;0.60;;;12.60;99.90;;;;;;4961267;28;20275;-78
2021/04/24 09:08:22;;;;;;;0.43;0.43;;;12.70;99.90;;;;;;4962116;28;20582;-78
2021/04/24 09:10:48;;;;;;;0.38;0.38;;;12.80;99.90;;;;;;4964265;28;20178;-77
2021/04/24 09:13:22;;;;;;;0.93;0.82;;;12.90;99.90;;;;;;4963477;28;20369;-78
2021/04/24 09:15:48;;;;;;;7.03;2.92;;;12.80;99.90;;;;;;4962747;28;20173;-78
2021/04/24 09:18:18;;;;;;;0.43;0.43;;;12.80;99.90;;;;;;4963428;28;20202;-79
2021/04/24 09:21:00;;;;;;;2.65;1.15;;;12.90;99.90;;;;;;4961128;28;20173;-77
2021/04/24 09:23:32;;;;;;;1.15;1.10;;;12.90;99.90;;;;;;4962323;28;20169;-76
2021/04/24 09:26:02;;;;;;;0.30;0.30;;;12.80;99.90;;;;;;4963400;28;20264;-80
2021/04/24 09:28:37;;;;;;;0.25;0.25;;;12.90;99.90;;;;;;4964215;28;20194;-78
2021/04/24 09:31:12;;;;;;;0.77;0.77;;;13.10;99.90;;;;;;4945943;28;20174;-78
2021/04/24 09:33:39;;;;;;;0.68;0.45;;;13.10;99.90;;;;;;4945646;29;20542;-78
2021/04/24 09:36:07;;;;;;;0.50;0.50;;;13.20;99.90;;;;;;4945613;28;20185;-77
2021/04/24 09:38:39;;;;;;;0.38;0.38;;;13.30;99.90;;;;;;4945591;28;20205;-78
2021/04/24 09:41:33;;;;;;;0.47;0.47;;;13.40;99.90;;;;;;4933391;29;20697;-80
2021/04/24 09:44:05;;;;;;;13.77;0.57;;;13.60;99.90;;;;;;4945536;28;20800;-78
2021/04/24 09:46:46;;;;;;;0.30;0.30;;;13.70;99.90;;;;;;4944663;28;20264;-77
2021/04/24 09:49:15;;;;;;;0.75;0.75;;;13.80;99.90;;;;;;4945028;28;20554;-79
2021/04/24 09:51:47;;;;;;;2.40;0.60;;;13.90;99.90;;;;;;4944624;28;20229;-79
2021/04/24 09:54:13;;;;;;;2.58;1.35;;;13.90;99.90;;;;;;4943698;28;20175;-78
2021/04/24 09:56:39;;;;;;;0.35;0.35;;;14.00;99.90;;;;;;4976491;28;20234;-79
2021/04/24 09:59:08;;;;;;;2.25;1.10;;;14.10;99.90;;;;;;4976635;28;20166;-79
2021/04/24 10:01:37;;;;;;;4.70;1.70;;;13.80;99.90;;;;;;4946735;28;20177;-78
2021/04/24 10:04:02;;;;;;;0.40;0.40;;;13.80;99.90;;;;;;4945884;28;20174;-78
2021/04/24 10:06:34;;;;;;;0.73;0.73;;;14.00;99.90;;;;;;4977411;28;20186;-79
2021/04/24 10:09:24;;;;;;;0.95;0.95;;;14.10;99.90;;;;;;4945643;28;20577;-79
2021/04/24 10:12:04;;;;;;;1.83;1.63;;;13.90;99.70;;;;;;4946844;28;20163;-77
2021/04/24 10:14:42;;;;;;;0.73;0.73;;;13.80;99.90;;;;;;4946183;28;20163;-77
2021/04/24 10:17:10;;;;;;;2.83;2.05;;;13.70;99.90;;;;;;4945644;28;20997;-77
2021/04/24 10:19:37;;;;;;;1.65;0.88;;;13.60;99.90;;;;;;4945500;28;20178;-77
2021/04/24 10:22:05;;;;;;;0.45;0.45;;;13.80;99.90;;;;;;4940104;28;20249;-79
2021/04/24 10:24:31;;;;;;;0.47;0.47;;;13.90;99.90;;;;;;4944961;28;20224;-78
2021/04/24 10:26:58;;;;;;;0.52;0.45;;;13.90;99.90;;;;;;4944543;28;20204;-78
2021/04/24 10:29:23;;;;;;;0.73;0.73;;;13.90;99.90;;;;;;4945817;28;20476;-78
2021/04/24 10:31:50;;;;;;;0.52;0.52;;;14.00;99.90;;;;;;4946628;29;20591;-79
2021/04/24 10:34:16;;;;;;;1.67;0.60;;;14.10;99.90;;;;;;4944918;28;20249;-78
2021/04/24 10:36:43;;;;;;;0.50;0.50;;;14.10;99.90;;;;;;4941976;28;20209;-79
2021/04/24 10:39:12;;;;;;;0.90;0.88;;;14.20;99.90;;;;;;4943628;29;20198;-78
2021/04/24 10:41:43;;;;;;;0.70;0.70;;;14.10;99.90;;;;;;4946157;29;20628;-79
2021/04/24 10:44:14;;;;;;;0.55;0.55;;;14.20;99.90;;;;;;4944990;29;20225;-80
2021/04/24 10:46:56;;;;;;;0.70;0.70;;;14.30;99.90;;;;;;4956996;28;20249;-80
2021/04/24 10:49:27;;;;;;;0.93;0.57;;;14.30;99.90;;;;;;4956767;29;20182;-80
2021/04/24 10:52:23;;;;;;;6.07;0.93;;;14.50;99.70;;;;;;4958280;28;20214;-79
2021/04/24 10:55:16;;;;;;;0.50;0.50;;;14.60;99.60;;;;;;4975731;28;20224;-80
2021/04/24 10:57:43;;;;;;;0.52;0.52;;;14.70;99.20;;;;;;4974577;28;20255;-78
2021/04/24 11:00:14;;;;;;;0.57;0.40;;;14.40;98.60;;;;;;4975803;28;20166;-80
2021/04/24 11:02:53;;;;;;;1.60;1.27;;;14.40;99.10;;;;;;4975522;28;20645;-79
2021/04/24 11:05:27;;;;;;;0.77;0.77;;;14.20;98.70;;;;;;4975637;28;20621;-80
2021/04/24 11:08:08;;;;;;;1.23;1.20;;;14.20;99.10;;;;;;4976052;28;20221;-77
2021/04/24 11:10:45;;;;;;;0.45;0.45;;;14.00;99.50;;;;;;4975772;28;20249;-79
2021/04/24 11:13:12;;;;;;;2.33;2.10;;;13.90;99.50;;;;;;4976194;28;20189;-77
2021/04/24 11:15:39;;;;;;;0.50;0.50;;;14.00;99.70;;;;;;4976262;28;20185;-79
2021/04/24 11:18:08;;;;;;;1.08;0.70;;;14.10;99.80;;;;;;4977726;28;20601;-77
2021/04/24 11:21:05;;;;;;;0.88;0.77;;;14.20;99.30;;;;;;4977045;28;20162;-81
2021/04/24 11:23:30;;;;;;;0.95;0.65;;;14.40;99.90;;;;;;4976472;28;20162;-81
2021/04/24 11:26:10;;;;;;;5.25;0.88;;;14.50;99.30;;;;;;4975762;28;20268;-80
2021/04/24 11:29:18;;;;;;;0.90;0.85;;;14.50;99.70;;;;;;4975249;28;20186;-79
2021/04/24 11:31:55;;;;;;;3.50;1.23;;;14.20;99.30;;;;;;4953119;29;20178;-79
2021/04/24 11:34:34;;;;;;;0.77;0.77;;;14.20;99.70;;;;;;4953884;29;20652;-78
2021/04/24 11:37:16;;;;;;;1.10;1.10;;;14.40;99.40;;;;;;4960581;28;20205;-78
2021/04/24 11:40:16;;;;;;;2.78;0.85;;;14.50;98.90;;;;;;4974695;28;20623;-79
2021/04/24 11:42:52;;;;;;;0.93;0.90;;;14.60;99.20;;;;;;4973425;28;20205;-80
2021/04/24 11:45:49;;;;;;;0.40;0.40;;;14.50;98.70;;;;;;4974594;28;20331;-79
2021/04/24 11:48:17;;;;;;;0.63;0.63;;;14.50;98.80;;;;;;4973875;28;20571;-79
2021/04/24 11:50:44;;;;;;;0.40;0.40;;;14.50;98.70;;;;;;4974815;28;20204;-81
2021/04/24 11:53:11;;;;;;;1.05;1.05;;;14.40;98.90;;;;;;4974656;28;20640;-79
2021/04/24 11:55:39;;;;;;;1.52;1.10;;;14.10;99.10;;;;;;4974980;28;20217;-78
2021/04/24 11:58:10;;;;;;;3.47;0.93;;;14.20;99.70;;;;;;4973543;28;20233;-80
2021/04/24 12:00:37;;;;;;;0.52;0.52;;;14.40;99.50;;;;;;4973358;28;20273;-80
2021/04/24 12:03:04;;;;;;;1.20;0.77;;;14.40;99.00;;;;;;4974649;28;20201;-80
2021/04/24 12:05:30;;;;;;;0.47;0.47;;;14.40;99.40;;;;;;4974397;28;20193;-78
2021/04/24 12:07:58;;;;;;;0.98;0.80;;;14.50;99.90;;;;;;4974840;28;20182;-79
2021/04/24 12:10:29;;;;;;;2.75;2.55;;;14.60;99.90;;;;;;4973351;28;20188;-81
2021/04/24 12:13:07;;;;;;;0.70;0.70;;;14.90;99.10;;;;;;4973394;28;20177;-79
2021/04/24 12:15:32;;;;;;;0.85;0.85;;;14.80;98.50;;;;;;4974379;28;20633;-78
2021/04/24 12:17:59;;;;;;;2.15;0.70;;;14.90;98.90;;;;;;4974539;28;20261;-77
2021/04/24 12:20:28;;;;;;;0.30;0.30;;;14.90;98.70;;;;;;4974410;28;20284;-79
2021/04/24 12:22:56;;;;;;;1.23;1.17;;;15.00;98.40;;;;;;4974553;28;20524;-80
2021/04/24 12:25:24;;;;;;;0.57;0.57;;;15.20;98.60;;;;;;4973788;28;20235;-77
2021/04/24 12:27:51;;;;;;;1.00;1.00;;;15.00;97.50;;;;;;4974455;28;20245;-81
2021/04/24 12:30:21;;;;;;;0.90;0.90;;;15.00;98.30;;;;;;4974442;28;20248;-79
2021/04/24 12:32:51;;;;;;;3.83;1.10;;;14.90;98.60;;;;;;4973925;28;20170;-79
2021/04/24 12:35:18;;;;;;;7.93;2.35;;;15.10;98.10;;;;;;4974722;28;20173;-78
2021/04/24 12:37:45;;;;;;;1.15;1.00;;;15.30;98.20;;;;;;4974266;28;20263;-78
2021/04/24 12:40:20;;;;;;;0.65;0.65;;;15.60;98.10;;;;;;4974433;28;20170;-79
2021/04/24 12:42:48;;;;;;;9.07;1.58;;;15.60;96.30;;;;;;4972547;28;20221;-78
2021/04/24 12:45:16;;;;;;;0.82;0.68;;;15.30;95.40;;;;;;4974250;28;20613;-79
2021/04/24 12:47:42;;;;;;;0.80;0.80;;;15.30;95.40;;;;;;4974364;28;20281;-79
2021/04/24 12:50:16;;;;;;;0.47;0.47;;;15.10;95.90;;;;;;4972476;28;20201;-79
2021/04/24 12:52:48;;;;;;;1.75;1.05;;;15.00;95.60;;;;;;4972000;28;20241;-80
2021/04/24 12:55:14;;;;;;;0.30;0.30;;;15.10;96.10;;;;;;4973966;28;20710;-79
2021/04/24 12:57:54;;;;;;;3.72;1.65;;;15.10;96.10;;;;;;4974134;28;20194;-79
2021/04/24 13:00:31;;;;;;;3.17;0.77;;;15.20;94.60;;;;;;4973446;28;20176;-79
2021/04/24 13:02:57;;;;;;;2.30;1.20;;;15.10;94.90;;;;;;4973768;28;20216;-79